createdAt,value
2023-01-06T00:00:33.954Z,1.50
2023-01-06T00:05:36.416Z,1.60
2023-01-06T00:10:38.581Z,2.17
2023-01-06T00:15:40.734Z,1.43
2023-01-06T00:20:42.858Z,2.00
2023-01-06T00:25:52.257Z,1.90
2023-01-06T00:30:54.640Z,1.93
2023-01-06T00:35:59.601Z,1.97
2023-01-06T00:41:28.133Z,1.80
2023-01-06T00:46:34.183Z,1.53
2023-01-06T00:51:39.875Z,1.87
2023-01-06T00:56:46.436Z,2.37
2023-01-06T01:01:53.410Z,4.00
2023-01-06T01:06:56.403Z,4.53
2023-01-06T01:12:14.646Z,5.27
2023-01-06T01:17:24.105Z,6.03
2023-01-06T01:22:29.204Z,8.20
2023-01-06T01:27:31.513Z,8.53
2023-01-06T01:32:33.663Z,7.83
2023-01-06T01:37:35.874Z,6.10
2023-01-06T01:42:38.525Z,4.57
2023-01-06T01:48:03.790Z,2.70
2023-01-06T01:53:32.257Z,3.50
2023-01-06T01:58:42.656Z,3.23
2023-01-06T02:03:45.163Z,2.37
2023-01-06T02:09:00.991Z,2.40
2023-01-06T02:14:12.118Z,4.00
2023-01-06T02:20:12.004Z,3.50
2023-01-06T02:26:19.040Z,4.03
2023-01-06T02:32:09.951Z,2.93
2023-01-06T02:37:34.408Z,3.13
2023-01-06T02:42:56.878Z,3.20
2023-01-06T02:48:14.329Z,3.10
2023-01-06T02:53:49.203Z,3.30
2023-01-06T02:59:04.601Z,2.43
2023-01-06T03:04:21.036Z,2.80
2023-01-06T03:09:31.241Z,2.70
2023-01-06T03:14:39.764Z,2.30
2023-01-06T03:19:44.784Z,2.70
2023-01-06T03:24:49.645Z,2.50
2023-01-06T03:29:55.172Z,1.80
2023-01-06T03:35:39.911Z,2.33
2023-01-06T03:41:56.481Z,2.40
2023-01-06T03:47:22.035Z,2.40
2023-01-06T03:52:34.974Z,2.63
2023-01-06T03:57:45.069Z,2.00
2023-01-06T04:02:48.920Z,2.57
2023-01-06T04:07:55.291Z,1.60
2023-01-06T04:12:58.597Z,1.70
2023-01-06T04:18:06.907Z,1.87
2023-01-06T04:23:12.467Z,1.40
2023-01-06T04:28:16.239Z,1.70
2023-01-06T04:33:19.701Z,1.73
2023-01-06T04:38:24.393Z,1.13
2023-01-06T04:43:26.683Z,1.00
2023-01-06T04:48:29.142Z,1.10
2023-01-06T04:53:35.579Z,1.20
2023-01-06T04:58:39.435Z,1.00
2023-01-06T05:03:41.910Z,1.30
2023-01-06T05:08:45.787Z,1.30
2023-01-06T05:13:48.405Z,1.40
2023-01-06T05:18:50.695Z,1.30
2023-01-06T05:23:53.969Z,1.00
2023-01-06T05:28:56.647Z,1.30
2023-01-06T05:33:58.941Z,1.43
2023-01-06T05:39:01.201Z,1.33
2023-01-06T05:44:03.539Z,1.10
2023-01-06T05:49:05.799Z,1.20
2023-01-06T05:54:10.122Z,1.50
2023-01-06T05:59:12.421Z,1.40
2023-01-06T06:04:14.766Z,0.97
2023-01-06T06:09:17.032Z,1.40
2023-01-06T06:14:19.311Z,1.70
2023-01-06T06:19:21.614Z,1.60
2023-01-06T06:24:23.921Z,1.40
2023-01-06T06:29:26.040Z,1.40
2023-01-06T06:34:28.167Z,1.30
2023-01-06T06:39:30.348Z,1.07
2023-01-06T06:44:32.556Z,1.30
2023-01-06T06:49:34.686Z,1.10
2023-01-06T06:54:36.896Z,0.87
2023-01-06T06:59:39.011Z,1.20
2023-01-06T07:04:41.138Z,1.43
2023-01-06T07:09:43.485Z,1.03
2023-01-06T07:14:45.767Z,0.90
2023-01-06T07:19:48.051Z,1.23
2023-01-06T07:24:50.331Z,1.00
2023-01-06T07:29:52.662Z,1.27
2023-01-06T07:34:54.844Z,1.10
2023-01-06T07:39:57.124Z,1.20
2023-01-06T07:44:59.405Z,1.10
2023-01-06T07:50:02.428Z,1.50
2023-01-06T07:55:05.311Z,1.10
2023-01-06T08:00:08.739Z,1.17
2023-01-06T08:05:14.275Z,1.20
2023-01-06T08:10:16.697Z,0.90
2023-01-06T08:15:19.069Z,1.10
2023-01-06T08:20:21.970Z,0.90
2023-01-06T08:25:24.270Z,0.87
2023-01-06T08:30:27.123Z,0.93
2023-01-06T08:35:29.476Z,0.93
2023-01-06T08:40:31.871Z,1.20
2023-01-06T08:45:37.911Z,1.00
2023-01-06T08:50:40.998Z,0.97
2023-01-06T08:55:43.279Z,0.80
2023-01-06T09:00:45.455Z,0.50
2023-01-06T09:05:58.725Z,1.13
2023-01-06T09:11:07.228Z,1.00
2023-01-06T09:16:11.470Z,0.80
2023-01-06T09:21:14.008Z,0.53
2023-01-06T09:26:18.645Z,0.83
2023-01-06T09:31:21.152Z,0.83
2023-01-06T09:36:23.378Z,1.07
2023-01-06T09:42:14.183Z,0.90
2023-01-06T09:47:22.301Z,0.97
2023-01-06T09:52:31.526Z,9.40
2023-01-06T09:57:40.797Z,1.23
2023-01-06T10:02:43.978Z,1.10
2023-01-06T10:08:28.141Z,1.10
2023-01-06T10:13:53.974Z,1.70
2023-01-06T10:19:08.054Z,1.13
2023-01-06T10:24:31.384Z,1.20
2023-01-06T10:29:38.175Z,1.07
2023-01-06T10:34:40.599Z,1.17
2023-01-06T10:39:47.076Z,0.83
2023-01-06T10:44:49.379Z,0.93
2023-01-06T10:49:52.398Z,0.80
2023-01-06T10:55:02.688Z,0.70
2023-01-06T11:00:22.599Z,0.80
2023-01-06T11:05:31.035Z,0.87
2023-01-06T11:10:54.827Z,1.07
2023-01-06T11:16:01.583Z,0.60
2023-01-06T11:21:16.638Z,0.80
2023-01-06T11:26:23.630Z,0.90
2023-01-06T11:31:28.936Z,0.70
2023-01-06T11:36:34.245Z,0.70
2023-01-06T11:41:40.896Z,0.90
2023-01-06T11:47:00.153Z,0.70
2023-01-06T11:52:07.955Z,0.70
2023-01-06T11:58:04.564Z,0.70
2023-01-06T12:03:25.057Z,0.60
2023-01-06T12:08:55.902Z,1.37
2023-01-06T12:14:27.476Z,1.00
2023-01-06T12:19:37.089Z,0.70
2023-01-06T12:24:40.425Z,0.90
2023-01-06T12:29:43.076Z,0.80
2023-01-06T12:34:48.718Z,0.77
2023-01-06T12:40:10.414Z,0.63
2023-01-06T12:45:46.728Z,0.87
2023-01-06T12:51:00.707Z,0.70
2023-01-06T12:56:41.660Z,1.03
2023-01-06T13:02:28.632Z,0.90
2023-01-06T13:08:20.786Z,0.80
2023-01-06T13:13:55.052Z,0.80
2023-01-06T13:19:36.703Z,0.50
2023-01-06T13:25:13.838Z,0.57
2023-01-06T13:31:15.246Z,0.50
2023-01-06T13:37:02.596Z,0.60
2023-01-06T13:42:08.414Z,0.40
2023-01-06T13:47:18.003Z,0.50
2023-01-06T13:52:29.155Z,0.40
2023-01-06T13:57:38.572Z,0.70
2023-01-06T14:02:42.725Z,0.50
2023-01-06T14:07:52.489Z,0.50
2023-01-06T14:12:55.902Z,0.50
2023-01-06T14:18:00.338Z,0.50
2023-01-06T14:23:19.307Z,0.70
2023-01-06T14:28:21.495Z,0.60
2023-01-06T14:33:35.306Z,0.57
2023-01-06T14:38:47.127Z,0.73
2023-01-06T14:44:31.185Z,0.60
2023-01-06T14:49:49.949Z,0.80
2023-01-06T14:54:53.986Z,0.60
2023-01-06T15:00:11.666Z,0.90
2023-01-06T15:05:38.788Z,0.60
2023-01-06T15:10:48.330Z,0.77
2023-01-06T15:16:18.655Z,0.77
2023-01-06T15:21:22.493Z,0.77
2023-01-06T15:26:30.003Z,0.87
2023-01-06T15:31:40.515Z,0.80
2023-01-06T15:36:45.373Z,0.60
2023-01-06T15:41:48.447Z,0.73
2023-01-06T15:47:04.628Z,0.80
2023-01-06T15:52:27.276Z,0.80
2023-01-06T15:57:38.210Z,0.87
2023-01-06T16:02:40.513Z,0.70
2023-01-06T16:07:44.782Z,0.70
2023-01-06T16:12:47.136Z,0.90
2023-01-06T16:17:49.416Z,0.90
2023-01-06T16:22:56.568Z,1.10
2023-01-06T16:28:02.414Z,0.80
2023-01-06T16:33:05.573Z,0.93
2023-01-06T16:38:08.593Z,1.07
2023-01-06T16:43:10.892Z,1.30
2023-01-06T16:48:17.701Z,1.37
2023-01-06T16:53:23.313Z,1.30
2023-01-06T16:58:29.644Z,1.77
2023-01-06T17:03:37.569Z,2.20
2023-01-06T17:08:40.832Z,1.40
2023-01-06T17:13:56.358Z,1.53
2023-01-06T17:19:20.370Z,1.30
2023-01-06T17:24:25.800Z,1.67
2023-01-06T17:29:34.197Z,1.10
2023-01-06T17:34:37.485Z,1.57
2023-01-06T17:39:43.432Z,1.20
2023-01-06T17:44:48.727Z,1.07
2023-01-06T17:49:59.816Z,1.20
2023-01-06T17:55:44.175Z,1.30
2023-01-06T18:00:47.116Z,1.53
2023-01-06T18:05:49.766Z,1.50
2023-01-06T18:10:59.957Z,1.80
2023-01-06T18:16:14.310Z,1.50
2023-01-06T18:21:16.353Z,1.80
2023-01-06T18:26:27.772Z,1.40
2023-01-06T18:31:37.197Z,1.67
2023-01-06T18:36:39.359Z,1.80
2023-01-06T18:41:42.226Z,1.53
2023-01-06T18:46:44.329Z,1.60
2023-01-06T18:51:46.547Z,1.57
2023-01-06T18:56:48.831Z,2.10
2023-01-06T19:01:52.965Z,1.90
2023-01-06T19:07:03.676Z,2.10
2023-01-06T19:12:08.792Z,1.70
2023-01-06T19:17:37.101Z,1.77
2023-01-06T19:22:39.346Z,2.00
2023-01-06T19:27:52.440Z,2.30
2023-01-06T19:32:54.700Z,2.07
2023-01-06T19:38:07.011Z,1.87
2023-01-06T19:43:37.965Z,1.93
2023-01-06T19:48:42.134Z,1.63
2023-01-06T19:53:50.802Z,1.93
2023-01-06T19:58:59.505Z,1.50
2023-01-06T20:04:02.173Z,1.50
2023-01-06T20:09:04.531Z,1.70
2023-01-06T20:14:06.757Z,2.03
2023-01-06T20:19:08.985Z,1.97
2023-01-06T20:24:14.213Z,2.53
2023-01-06T20:29:16.505Z,2.00
2023-01-06T20:34:18.622Z,2.03
2023-01-06T20:39:21.068Z,2.10
2023-01-06T20:44:23.223Z,2.10
2023-01-06T20:49:25.456Z,2.00
2023-01-06T20:54:27.698Z,2.00
2023-01-06T20:59:29.896Z,2.20
2023-01-06T21:04:34.226Z,2.97
2023-01-06T21:09:36.845Z,2.27
2023-01-06T21:14:38.961Z,2.97
2023-01-06T21:19:41.359Z,2.90
2023-01-06T21:24:43.693Z,2.50
2023-01-06T21:29:46.071Z,3.10
2023-01-06T21:34:48.694Z,2.80
2023-01-06T21:39:51.081Z,2.50
2023-01-06T21:44:53.324Z,2.43
2023-01-06T21:49:55.461Z,2.77
2023-01-06T21:54:59.205Z,2.83
2023-01-06T22:00:01.356Z,2.27
2023-01-06T22:05:03.803Z,2.93
2023-01-06T22:10:08.687Z,2.87
2023-01-06T22:15:11.849Z,3.10
2023-01-06T22:20:14.708Z,2.93
2023-01-06T22:25:16.975Z,2.90
2023-01-06T22:30:19.319Z,2.30
2023-01-06T22:35:21.625Z,2.43
2023-01-06T22:40:24.007Z,1.83
2023-01-06T22:45:26.295Z,2.10
2023-01-06T22:50:28.659Z,1.90
2023-01-06T22:55:30.876Z,1.80
2023-01-06T23:00:33.002Z,1.60
2023-01-06T23:05:35.095Z,1.37
2023-01-06T23:10:37.587Z,1.67
2023-01-06T23:15:39.830Z,1.60
2023-01-06T23:20:42.069Z,1.80
2023-01-06T23:25:47.135Z,2.40
2023-01-06T23:30:49.597Z,2.37
2023-01-06T23:35:51.879Z,2.47
2023-01-06T23:40:54.195Z,1.97
2023-01-06T23:46:01.414Z,1.90
2023-01-06T23:51:06.197Z,1.57
2023-01-06T23:56:19.068Z,2.60
